Time;durP1;ratioP1;P1;durP2;ratioP2;P2;SDS_P1;SDS_P2;PMS_P1;PMS_P2;Temp;Humidity;BMP_temperature;BMP_pressure;BME280_temperature;BME280_humidity;BME280_pressure;Samples;Min_cycle;Max_cycle;Signal;HPM_P1;HPM_P2
2024/03/12 00:01:55;;;;;;;5.97;3.90;;;8.70;99.90;;;;;;5039878;28;20210;-60
2024/03/12 00:04:23;;;;;;;7.80;3.90;;;8.70;99.90;;;;;;5042573;28;20780;-60
2024/03/12 00:06:50;;;;;;;5.97;4.10;;;8.70;99.90;;;;;;5043400;28;20496;-60
2024/03/12 00:09:17;;;;;;;4.40;3.57;;;8.70;99.90;;;;;;5041097;28;20213;-60
2024/03/12 00:11:43;;;;;;;5.63;3.80;;;8.70;99.90;;;;;;5039926;28;20241;-60
2024/03/12 00:14:10;;;;;;;8.03;4.60;;;8.70;99.90;;;;;;5040275;28;20727;-60
2024/03/12 00:16:40;;;;;;;8.10;5.33;;;8.60;99.90;;;;;;5043002;28;20205;-59
2024/03/12 00:19:09;;;;;;;8.50;4.97;;;8.60;99.90;;;;;;5042065;28;20217;-60
2024/03/12 00:21:37;;;;;;;5.87;4.60;;;8.50;99.90;;;;;;5039711;28;20294;-59
2024/03/12 00:24:04;;;;;;;7.03;5.37;;;8.40;99.90;;;;;;5039852;28;20253;-60
2024/03/12 00:26:32;;;;;;;10.30;5.73;;;8.30;99.90;;;;;;5043081;28;20585;-61
2024/03/12 00:28:59;;;;;;;6.17;4.70;;;8.20;99.90;;;;;;5043067;28;20202;-61
2024/03/12 00:31:26;;;;;;;8.87;4.87;;;8.10;99.90;;;;;;5039461;28;20317;-60
2024/03/12 00:33:52;;;;;;;6.37;4.70;;;8.00;99.90;;;;;;5039487;28;20276;-61
2024/03/12 00:36:19;;;;;;;7.33;4.80;;;7.80;99.90;;;;;;5041870;28;20198;-60
2024/03/12 00:38:47;;;;;;;8.40;5.17;;;7.70;99.90;;;;;;5043046;28;20218;-60
2024/03/12 00:41:14;;;;;;;7.43;5.00;;;7.60;99.90;;;;;;5043433;28;20297;-59
2024/03/12 00:43:42;;;;;;;9.67;5.47;;;7.50;99.90;;;;;;5042609;28;20292;-59
2024/03/12 00:46:10;;;;;;;7.60;5.53;;;7.40;99.90;;;;;;5043443;28;20234;-60
2024/03/12 00:48:37;;;;;;;9.43;6.33;;;7.40;99.90;;;;;;5046466;28;20251;-60
2024/03/12 00:51:04;;;;;;;8.57;5.80;;;7.30;99.90;;;;;;5046028;28;20201;-61
2024/03/12 00:53:31;;;;;;;10.10;5.90;;;7.30;99.90;;;;;;5042327;28;20226;-60
2024/03/12 00:55:58;;;;;;;8.93;6.00;;;7.30;99.90;;;;;;5042614;28;20211;-61
2024/03/12 00:58:25;;;;;;;7.77;5.13;;;7.30;99.90;;;;;;5045286;28;20634;-61
2024/03/12 01:00:53;;;;;;;8.33;5.30;;;7.30;99.90;;;;;;5045791;28;20646;-60
2024/03/12 01:03:19;;;;;;;8.60;4.97;;;7.30;99.90;;;;;;5043589;28;20249;-60
2024/03/12 01:05:46;;;;;;;6.30;4.50;;;7.20;99.90;;;;;;5042367;28;20202;-60
2024/03/12 01:08:14;;;;;;;6.27;4.03;;;7.20;99.90;;;;;;5043484;28;20616;-60
2024/03/12 01:10:40;;;;;;;5.90;4.47;;;7.10;99.90;;;;;;5045848;28;20206;-60
2024/03/12 01:13:09;;;;;;;5.97;4.03;;;7.10;99.90;;;;;;5044905;28;20229;-60
2024/03/12 01:15:36;;;;;;;6.00;4.00;;;7.00;99.90;;;;;;5041925;28;20744;-60
2024/03/12 01:18:04;;;;;;;4.73;3.53;;;7.00;99.90;;;;;;5042061;28;20222;-60
2024/03/12 01:20:33;;;;;;;4.43;3.33;;;6.90;99.90;;;;;;5045902;28;20233;-61
2024/03/12 01:23:01;;;;;;;5.87;3.33;;;6.90;99.90;;;;;;5045577;28;20274;-60
2024/03/12 01:25:29;;;;;;;8.00;3.70;;;6.80;99.90;;;;;;5041918;28;20202;-60
2024/03/12 01:27:56;;;;;;;5.00;3.33;;;6.80;99.90;;;;;;5041999;28;20294;-60
2024/03/12 01:30:27;;;;;;;5.23;3.10;;;6.80;99.90;;;;;;5044641;28;20297;-60
2024/03/12 01:32:57;;;;;;;6.57;3.10;;;6.80;99.90;;;;;;5045423;28;20221;-61
2024/03/12 01:35:24;;;;;;;5.37;3.17;;;6.70;99.90;;;;;;5042380;28;20218;-60
2024/03/12 01:37:52;;;;;;;4.53;3.17;;;6.60;99.90;;;;;;5041938;28;20314;-60
2024/03/12 01:40:22;;;;;;;4.80;3.13;;;6.60;99.90;;;;;;5043872;28;20202;-60
2024/03/12 01:42:49;;;;;;;4.83;3.10;;;6.50;99.90;;;;;;5045165;28;20729;-60
2024/03/12 01:45:17;;;;;;;2.93;2.57;;;6.50;99.90;;;;;;5043707;28;20208;-58
2024/03/12 01:47:46;;;;;;;3.30;2.90;;;6.50;99.90;;;;;;5041840;28;20206;-60
2024/03/12 01:50:13;;;;;;;3.13;2.57;;;6.60;99.90;;;;;;5042869;28;20202;-60
2024/03/12 01:52:43;;;;;;;4.10;3.20;;;6.50;99.90;;;;;;5044725;28;20222;-60
2024/03/12 01:55:10;;;;;;;3.17;2.70;;;6.50;99.90;;;;;;5044372;28;20206;-60
2024/03/12 01:57:40;;;;;;;3.53;2.60;;;6.50;99.90;;;;;;5041395;28;20198;-60
2024/03/12 02:00:13;;;;;;;3.07;2.50;;;6.40;99.90;;;;;;5041786;28;20199;-60
2024/03/12 02:02:40;;;;;;;4.87;2.60;;;6.50;99.90;;;;;;5044845;28;20225;-61
2024/03/12 02:05:10;;;;;;;3.87;2.53;;;6.40;99.90;;;;;;5044245;28;20205;-60
2024/03/12 02:07:38;;;;;;;3.37;2.53;;;6.40;99.90;;;;;;5041313;28;20260;-59
2024/03/12 02:10:06;;;;;;;3.67;2.70;;;6.30;99.90;;;;;;5041572;28;20202;-60
2024/03/12 02:12:32;;;;;;;3.10;2.60;;;6.30;99.90;;;;;;5033388;28;20236;-59
2024/03/12 02:15:03;;;;;;;2.83;2.50;;;6.30;99.90;;;;;;5041159;28;20260;-60
2024/03/12 02:17:30;;;;;;;5.73;2.47;;;6.20;99.90;;;;;;5044540;28;20224;-59
2024/03/12 02:19:57;;;;;;;2.97;2.43;;;6.20;99.90;;;;;;5044562;28;20224;-60
2024/03/12 02:22:25;;;;;;;5.63;2.73;;;6.30;99.90;;;;;;5042107;28;20236;-60
2024/03/12 02:24:53;;;;;;;3.73;2.80;;;6.30;99.90;;;;;;5041108;28;20208;-59
2024/03/12 02:27:20;;;;;;;2.80;1.97;;;6.30;99.90;;;;;;5043053;28;20202;-60
2024/03/12 02:29:47;;;;;;;5.20;2.20;;;6.30;99.90;;;;;;5044394;28;20197;-60
2024/03/12 02:32:14;;;;;;;3.23;2.43;;;6.30;99.90;;;;;;5043128;28;20205;-60
2024/03/12 02:34:40;;;;;;;4.40;3.10;;;6.40;99.90;;;;;;5040239;28;20732;-60
2024/03/12 02:37:07;;;;;;;3.43;2.97;;;6.40;99.90;;;;;;5040857;28;20214;-59
2024/03/12 02:39:35;;;;;;;3.47;2.50;;;6.50;99.90;;;;;;5043969;28;20213;-60
2024/03/12 02:42:03;;;;;;;5.63;2.47;;;6.60;99.90;;;;;;5044048;28;20224;-60
2024/03/12 02:44:29;;;;;;;3.57;2.20;;;6.60;99.90;;;;;;5040381;28;20226;-59
2024/03/12 02:46:57;;;;;;;3.07;2.27;;;6.60;99.90;;;;;;5040433;28;20206;-60
2024/03/12 02:49:24;;;;;;;3.87;2.17;;;6.60;99.90;;;;;;5042892;28;20297;-60
2024/03/12 02:51:51;;;;;;;3.03;2.00;;;6.60;99.90;;;;;;5043756;28;20667;-60
2024/03/12 02:54:21;;;;;;;2.40;2.00;;;6.60;99.90;;;;;;5041760;28;20259;-60
2024/03/12 02:56:48;;;;;;;3.70;1.83;;;6.60;99.90;;;;;;5040342;28;20276;-60
2024/03/12 02:59:16;;;;;;;4.07;2.00;;;6.60;99.90;;;;;;5041366;28;20246;-60
2024/03/12 03:01:43;;;;;;;5.23;2.27;;;6.60;99.90;;;;;;5043869;28;20201;-60
2024/03/12 03:04:09;;;;;;;3.50;2.10;;;6.60;99.90;;;;;;5042699;28;20228;-60
2024/03/12 03:06:36;;;;;;;4.27;2.27;;;6.60;99.90;;;;;;5040282;28;20213;-60
2024/03/12 03:09:05;;;;;;;3.40;2.50;;;6.60;99.90;;;;;;5040256;28;20264;-60
2024/03/12 03:11:32;;;;;;;3.07;2.10;;;6.60;99.90;;;;;;5043332;28;20289;-59
2024/03/12 03:13:58;;;;;;;3.47;2.30;;;6.60;99.90;;;;;;5043100;28;20232;-60
2024/03/12 03:16:27;;;;;;;4.93;2.07;;;6.60;99.90;;;;;;5041150;28;20212;-60
2024/03/12 03:18:54;;;;;;;3.67;2.00;;;6.60;99.90;;;;;;5039940;28;20708;-60
2024/03/12 03:21:20;;;;;;;2.87;1.87;;;6.60;99.90;;;;;;5041994;28;20210;-60
2024/03/12 03:23:47;;;;;;;3.20;2.17;;;6.60;99.90;;;;;;5043016;28;20721;-61
2024/03/12 03:26:14;;;;;;;2.97;2.27;;;6.70;99.90;;;;;;5042351;28;20205;-60
2024/03/12 03:28:40;;;;;;;2.70;2.10;;;6.80;99.90;;;;;;5039977;28;20206;-60
2024/03/12 03:31:10;;;;;;;3.60;1.87;;;6.90;99.90;;;;;;5040186;28;20232;-60
2024/03/12 03:33:38;;;;;;;2.83;1.90;;;7.00;99.90;;;;;;5042981;28;20283;-60
2024/03/12 03:36:06;;;;;;;2.27;1.97;;;7.10;99.90;;;;;;5043400;28;20223;-60
2024/03/12 03:38:33;;;;;;;2.57;1.83;;;7.20;99.90;;;;;;5039717;28;20226;-60
2024/03/12 03:41:00;;;;;;;4.03;2.23;;;7.30;99.90;;;;;;5039674;28;20625;-60
2024/03/12 03:43:26;;;;;;;3.93;1.90;;;7.50;99.90;;;;;;5042292;28;20229;-58
2024/03/12 03:45:53;;;;;;;2.30;1.73;;;7.60;99.90;;;;;;5043145;28;20212;-60
2024/03/12 03:48:20;;;;;;;2.00;1.80;;;7.80;99.90;;;;;;5041557;28;20235;-60
2024/03/12 03:50:48;;;;;;;3.37;2.17;;;7.90;99.90;;;;;;5039887;28;20210;-60
2024/03/12 03:53:14;;;;;;;2.80;2.20;;;8.10;99.90;;;;;;5058107;22;20279;-62
2024/03/12 03:55:41;;;;;;;2.70;1.80;;;8.20;99.90;;;;;;5051088;28;20217;-61
2024/03/12 03:58:08;;;;;;;3.00;2.17;;;8.10;99.90;;;;;;5051432;28;20198;-60
2024/03/12 04:00:35;;;;;;;4.93;3.17;;;8.10;99.90;;;;;;5043509;28;20206;-61
2024/03/12 04:03:02;;;;;;;3.73;2.80;;;8.10;99.90;;;;;;5051392;28;20773;-61
2024/03/12 04:05:29;;;;;;;4.20;2.40;;;8.00;99.90;;;;;;5050999;28;20220;-63
2024/03/12 04:07:57;;;;;;;3.73;2.50;;;8.10;99.90;;;;;;5051173;28;20207;-62
2024/03/12 04:10:25;;;;;;;3.33;2.57;;;8.20;99.90;;;;;;5051649;28;20238;-61
2024/03/12 04:12:55;;;;;;;2.93;2.40;;;8.20;99.90;;;;;;5051217;28;20213;-62
2024/03/12 04:15:22;;;;;;;3.03;2.03;;;8.40;99.90;;;;;;5051594;28;20296;-62
2024/03/12 04:17:49;;;;;;;2.10;1.90;;;8.50;99.90;;;;;;5055212;28;20205;-62
2024/03/12 04:20:16;;;;;;;2.53;1.80;;;8.70;99.90;;;;;;5054728;28;20699;-62
2024/03/12 04:22:45;;;;;;;3.93;1.77;;;8.90;99.90;;;;;;5054709;28;20197;-60
2024/03/12 04:25:15;;;;;;;4.23;2.57;;;9.00;99.90;;;;;;5054509;28;20670;-61
2024/03/12 04:27:42;;;;;;;5.63;3.60;;;9.20;99.90;;;;;;5055006;28;20209;-60
2024/03/12 04:30:13;;;;;;;4.70;2.60;;;9.30;99.90;;;;;;5055077;28;20221;-61
2024/03/12 04:32:40;;;;;;;3.80;2.10;;;9.40;99.90;;;;;;5047162;28;20201;-61
2024/03/12 04:35:09;;;;;;;3.17;2.17;;;9.50;99.90;;;;;;5054469;28;20206;-61
2024/03/12 04:37:36;;;;;;;2.50;1.67;;;9.60;99.90;;;;;;5046532;28;20577;-61
2024/03/12 04:40:06;;;;;;;3.10;2.23;;;9.70;99.90;;;;;;5054680;28;20221;-61
2024/03/12 04:42:34;;;;;;;3.90;2.83;;;9.70;99.90;;;;;;5054504;28;20201;-61
2024/03/12 04:45:01;;;;;;;2.43;1.90;;;9.70;99.90;;;;;;5054287;28;20280;-61
2024/03/12 04:47:28;;;;;;;3.13;2.10;;;9.60;99.90;;;;;;5054625;28;20217;-60
2024/03/12 04:49:54;;;;;;;2.17;1.70;;;9.60;99.90;;;;;;5054561;28;20197;-61
2024/03/12 04:52:21;;;;;;;2.70;1.90;;;9.60;99.90;;;;;;5054703;28;20202;-61
2024/03/12 04:54:48;;;;;;;3.97;2.27;;;9.60;99.90;;;;;;5054104;28;20225;-60
2024/03/12 04:57:14;;;;;;;7.40;2.40;;;9.30;99.90;;;;;;5054406;28;20206;-61
2024/03/12 04:59:42;;;;;;;4.13;2.10;;;9.10;99.90;;;;;;5054331;28;20756;-61
2024/03/12 05:02:09;;;;;;;4.60;2.40;;;9.00;99.90;;;;;;5054337;28;20280;-61
2024/03/12 05:04:36;;;;;;;3.90;3.33;;;8.90;99.90;;;;;;5053883;28;20221;-60
2024/03/12 05:07:03;;;;;;;6.53;3.57;;;8.80;99.90;;;;;;5054688;28;20244;-61
2024/03/12 05:09:30;;;;;;;3.30;2.77;;;8.60;99.90;;;;;;5054652;28;20292;-60
2024/03/12 05:11:56;;;;;;;3.43;2.90;;;8.30;99.90;;;;;;5054672;28;20201;-60
2024/03/12 05:14:23;;;;;;;4.67;3.87;;;8.10;99.90;;;;;;5054072;28;20225;-61
2024/03/12 05:16:51;;;;;;;3.43;2.73;;;8.20;99.90;;;;;;5054096;28;20209;-61
2024/03/12 05:19:18;;;;;;;4.97;2.47;;;8.40;99.90;;;;;;5054082;28;20312;-61
2024/03/12 05:21:45;;;;;;;13.30;9.03;;;8.50;99.90;;;;;;5054009;28;20202;-61
2024/03/12 05:24:11;;;;;;;4.17;2.70;;;8.70;99.90;;;;;;5053556;28;20221;-61
2024/03/12 05:26:44;;;;;;;8.57;5.37;;;8.90;99.90;;;;;;5053526;28;20603;-61
2024/03/12 05:29:11;;;;;;;3.43;2.63;;;9.10;99.90;;;;;;5053678;28;20289;-60
2024/03/12 05:31:38;;;;;;;5.17;2.87;;;9.30;99.90;;;;;;5045686;28;20201;-60
2024/03/12 05:34:15;;;;;;;4.13;3.10;;;9.40;99.90;;;;;;5053201;28;20711;-60
2024/03/12 05:36:47;;;;;;;3.70;2.60;;;9.50;99.90;;;;;;5053763;28;20208;-61
2024/03/12 05:39:19;;;;;;;12.07;7.27;;;9.50;99.90;;;;;;5053308;28;20217;-60
2024/03/12 05:48:07;;;;;;;4.33;3.37;;;9.60;99.90;;;;;;5053386;28;20213;-60
2024/03/12 05:50:11;;;;;;;3.90;2.83;;;9.70;99.90;;;;;;5053346;28;20327;-60
2024/03/12 05:52:38;;;;;;;3.73;2.60;;;9.70;99.90;;;;;;5053488;28;20208;-60
2024/03/12 05:55:06;;;;;;;4.10;2.43;;;9.60;99.90;;;;;;5051584;28;20206;-60
2024/03/12 05:57:33;;;;;;;4.00;2.70;;;9.40;99.90;;;;;;5052985;28;20237;-61
2024/03/12 06:00:00;;;;;;;3.40;2.60;;;9.30;99.90;;;;;;5053068;28;20220;-61
2024/03/12 06:02:27;;;;;;;3.60;2.73;;;9.20;99.90;;;;;;5053004;28;20260;-61
2024/03/12 06:04:55;;;;;;;3.33;2.70;;;9.30;99.90;;;;;;5052589;28;20217;-61
2024/03/12 06:07:23;;;;;;;4.83;2.60;;;9.40;99.90;;;;;;5052902;28;20259;-60
2024/03/12 06:09:50;;;;;;;5.20;2.53;;;9.50;99.90;;;;;;5052934;28;20193;-61
2024/03/12 06:12:18;;;;;;;3.13;2.47;;;9.60;99.90;;;;;;5052598;28;20197;-61
2024/03/12 06:14:44;;;;;;;3.57;2.63;;;9.70;99.90;;;;;;5052524;28;20233;-61
2024/03/12 06:17:12;;;;;;;4.27;2.70;;;9.70;99.90;;;;;;5052645;28;20205;-60
2024/03/12 06:19:39;;;;;;;3.73;2.90;;;9.70;99.90;;;;;;5052564;28;20217;-60
2024/03/12 06:22:08;;;;;;;5.17;2.87;;;9.70;99.90;;;;;;5052633;28;20559;-60
2024/03/12 06:24:36;;;;;;;3.03;2.53;;;9.80;99.90;;;;;;5052449;28;20225;-60
2024/03/12 06:27:02;;;;;;;3.63;2.70;;;9.80;99.90;;;;;;5052626;28;20202;-60
2024/03/12 06:29:29;;;;;;;4.13;2.80;;;9.90;99.90;;;;;;5052544;28;20636;-61
2024/03/12 06:31:56;;;;;;;3.50;2.77;;;10.00;99.90;;;;;;5052365;28;20198;-60
2024/03/12 06:34:26;;;;;;;3.67;2.67;;;10.10;99.90;;;;;;5052162;28;20279;-61
2024/03/12 06:36:57;;;;;;;3.63;2.20;;;10.20;99.90;;;;;;5052544;28;20296;-61
2024/03/12 06:39:24;;;;;;;4.80;2.27;;;10.30;99.90;;;;;;5051493;28;20757;-61
2024/03/12 06:41:53;;;;;;;3.87;2.37;;;10.40;99.90;;;;;;5052425;28;20206;-63
2024/03/12 06:44:22;;;;;;;2.40;2.20;;;10.50;99.90;;;;;;5051855;28;20226;-62
2024/03/12 06:46:48;;;;;;;3.37;2.17;;;10.60;99.90;;;;;;5052469;28;20217;-60
2024/03/12 06:49:15;;;;;;;2.93;2.20;;;10.60;99.90;;;;;;5052119;28;20205;-61
2024/03/12 06:51:46;;;;;;;7.17;2.00;;;10.70;99.90;;;;;;5052081;28;20616;-61
2024/03/12 06:54:13;;;;;;;5.93;3.23;;;10.70;99.90;;;;;;5051829;28;20741;-61
2024/03/12 06:56:42;;;;;;;2.90;2.40;;;10.80;99.90;;;;;;5044203;28;20205;-61
2024/03/12 06:59:11;;;;;;;5.20;2.90;;;10.90;99.90;;;;;;5051727;28;20201;-61
2024/03/12 07:01:40;;;;;;;4.13;2.73;;;11.00;99.90;;;;;;5052134;28;20202;-61
2024/03/12 07:04:09;;;;;;;4.53;3.57;;;11.10;99.90;;;;;;5051754;28;20221;-61
2024/03/12 07:06:35;;;;;;;4.23;2.53;;;11.20;99.90;;;;;;5051720;28;20194;-61
2024/03/12 07:09:05;;;;;;;3.80;2.47;;;11.20;99.90;;;;;;5051878;28;20419;-60
2024/03/12 07:11:34;;;;;;;2.73;2.20;;;11.30;99.90;;;;;;5051586;28;20219;-60
2024/03/12 07:14:12;;;;;;;3.23;2.13;;;11.40;99.90;;;;;;5051427;28;20612;-61
2024/03/12 07:16:42;;;;;;;4.63;2.20;;;11.40;99.90;;;;;;5051603;28;20288;-62
2024/03/12 07:19:10;;;;;;;3.43;2.00;;;11.50;99.90;;;;;;5051436;28;20351;-61
2024/03/12 07:21:37;;;;;;;4.57;2.67;;;11.50;99.90;;;;;;5051442;28;20255;-61
2024/03/12 07:24:06;;;;;;;4.80;2.53;;;11.40;99.90;;;;;;5051275;28;20304;-61
2024/03/12 07:26:33;;;;;;;4.87;2.57;;;11.40;99.90;;;;;;5051420;28;20201;-64
2024/03/12 07:29:02;;;;;;;3.73;2.20;;;11.30;99.90;;;;;;5051872;28;20733;-61
2024/03/12 07:31:29;;;;;;;2.60;2.10;;;11.30;99.90;;;;;;5051488;28;20687;-61
2024/03/12 07:33:57;;;;;;;4.00;2.10;;;11.30;99.90;;;;;;5051241;28;20232;-62
2024/03/12 07:36:24;;;;;;;4.83;2.50;;;11.30;99.90;;;;;;5051552;28;20236;-62
2024/03/12 07:38:51;;;;;;;2.77;2.17;;;11.20;99.90;;;;;;5051895;28;20198;-63
2024/03/12 07:41:19;;;;;;;4.33;2.50;;;11.10;99.90;;;;;;5051569;28;20228;-61
2024/03/12 07:43:45;;;;;;;5.03;2.50;;;11.00;99.90;;;;;;5051225;28;20218;-61
2024/03/12 07:46:12;;;;;;;2.60;2.20;;;11.10;99.90;;;;;;5051425;28;20205;-61
2024/03/12 07:48:39;;;;;;;3.20;2.23;;;11.20;99.90;;;;;;5051323;28;20201;-61
2024/03/12 07:51:09;;;;;;;4.70;3.17;;;11.40;99.90;;;;;;5054884;28;20194;-61
2024/03/12 07:53:36;;;;;;;3.63;2.53;;;11.50;99.90;;;;;;5055034;28;20260;-62
2024/03/12 07:56:05;;;;;;;5.03;2.23;;;11.60;99.90;;;;;;5055774;28;20271;-62
2024/03/12 07:58:32;;;;;;;2.47;1.93;;;11.70;99.90;;;;;;5055592;28;20279;-61
2024/03/12 08:01:01;;;;;;;6.30;2.60;;;11.70;99.90;;;;;;5055481;28;20660;-61
2024/03/12 08:03:28;;;;;;;4.27;2.50;;;11.70;99.90;;;;;;5055118;28;20308;-61
2024/03/12 08:05:54;;;;;;;7.60;3.40;;;11.70;99.90;;;;;;5055601;28;20252;-60
2024/03/12 08:08:22;;;;;;;4.03;3.10;;;11.70;99.90;;;;;;5055413;28;20217;-62
2024/03/12 08:10:49;;;;;;;5.33;2.70;;;11.60;99.90;;;;;;5055276;28;20202;-62
2024/03/12 08:13:16;;;;;;;3.60;2.67;;;11.50;99.90;;;;;;5055007;28;20271;-62
2024/03/12 08:15:42;;;;;;;3.03;2.40;;;11.50;99.90;;;;;;5046900;28;20205;-62
2024/03/12 08:18:10;;;;;;;4.47;2.00;;;11.60;99.90;;;;;;5054969;28;20209;-63
2024/03/12 08:20:37;;;;;;;5.40;2.20;;;11.60;99.90;;;;;;5055268;28;20225;-62
2024/03/12 08:23:04;;;;;;;2.90;1.97;;;11.70;99.90;;;;;;5055531;28;20309;-61
2024/03/12 08:25:32;;;;;;;3.73;2.70;;;11.70;99.90;;;;;;5054978;28;20237;-61
2024/03/12 08:27:59;;;;;;;4.70;3.47;;;11.80;99.90;;;;;;5055203;28;20395;-62
2024/03/12 08:30:26;;;;;;;4.00;2.57;;;11.80;99.90;;;;;;5054642;28;20718;-62
2024/03/12 08:32:53;;;;;;;4.77;3.33;;;11.80;99.90;;;;;;5054512;28;20663;-61
2024/03/12 08:35:19;;;;;;;3.03;2.03;;;11.80;99.90;;;;;;5054390;28;20209;-62
2024/03/12 08:37:46;;;;;;;3.13;2.30;;;11.80;99.90;;;;;;5054967;28;20225;-62
2024/03/12 08:40:14;;;;;;;2.93;2.00;;;11.80;99.90;;;;;;5054845;28;20218;-61
2024/03/12 08:42:42;;;;;;;3.10;2.00;;;11.70;99.90;;;;;;5054359;28;20209;-61
2024/03/12 08:45:09;;;;;;;3.03;2.03;;;11.80;99.90;;;;;;5054464;28;20586;-62
2024/03/12 08:47:38;;;;;;;2.47;1.80;;;11.80;99.90;;;;;;5054640;28;20217;-63
2024/03/12 08:50:07;;;;;;;4.77;2.13;;;11.80;99.90;;;;;;5054401;28;20193;-61
2024/03/12 08:52:35;;;;;;;3.23;2.30;;;11.80;99.90;;;;;;5054243;28;20213;-61
2024/03/12 08:55:03;;;;;;;3.27;2.50;;;11.90;99.90;;;;;;5054195;28;20308;-62
2024/03/12 08:57:31;;;;;;;3.03;1.67;;;11.90;99.90;;;;;;5054209;28;20209;-63
2024/03/12 09:00:10;;;;;;;3.27;2.30;;;12.00;99.90;;;;;;5054529;28;20581;-61
2024/03/12 09:02:38;;;;;;;2.20;1.50;;;12.00;99.90;;;;;;5053445;28;20579;-61
2024/03/12 09:05:07;;;;;;;5.87;1.90;;;12.00;99.90;;;;;;5054121;28;20734;-61
2024/03/12 09:07:33;;;;;;;5.53;3.87;;;12.00;99.90;;;;;;5053861;28;20206;-62
2024/03/12 09:10:00;;;;;;;5.13;2.00;;;12.00;99.90;;;;;;5053955;28;20208;-62
2024/03/12 09:12:27;;;;;;;2.57;2.10;;;11.90;99.90;;;;;;5054102;28;20210;-62
2024/03/12 09:14:55;;;;;;;3.33;1.87;;;12.00;99.90;;;;;;5053713;28;20253;-62
2024/03/12 09:17:23;;;;;;;3.57;1.70;;;12.00;99.90;;;;;;5053672;28;20237;-61
2024/03/12 09:19:50;;;;;;;2.57;1.60;;;12.10;99.90;;;;;;5053606;28;20292;-62
2024/03/12 09:22:17;;;;;;;3.50;1.50;;;12.00;99.90;;;;;;5053617;28;20202;-62
2024/03/12 09:24:44;;;;;;;1.87;1.50;;;12.00;99.90;;;;;;5053207;28;20719;-62
2024/03/12 09:27:11;;;;;;;2.80;1.80;;;12.10;99.90;;;;;;5053616;28;20576;-64
2024/03/12 09:29:39;;;;;;;8.27;6.23;;;12.10;99.90;;;;;;5053569;28;20234;-62
2024/03/12 09:32:05;;;;;;;4.33;3.17;;;12.20;99.90;;;;;;5053853;28;20205;-61
2024/03/12 09:34:36;;;;;;;3.73;2.03;;;12.30;99.90;;;;;;5053164;28;20643;-62
2024/03/12 09:37:03;;;;;;;3.50;1.70;;;12.40;99.90;;;;;;5053549;28;20201;-65
2024/03/12 09:39:31;;;;;;;4.13;2.10;;;12.50;99.90;;;;;;5053394;28;20643;-65
2024/03/12 09:41:59;;;;;;;4.27;1.63;;;12.60;99.90;;;;;;5053841;28;20245;-64
2024/03/12 09:44:26;;;;;;;2.17;1.70;;;12.70;99.90;;;;;;5053428;28;20253;-65
2024/03/12 09:46:54;;;;;;;2.83;1.90;;;12.80;99.90;;;;;;5053382;28;20202;-65
2024/03/12 09:49:21;;;;;;;4.37;1.70;;;12.90;99.90;;;;;;5053337;28;20221;-65
2024/03/12 09:51:50;;;;;;;2.53;1.67;;;12.90;99.90;;;;;;5053382;28;20198;-64
2024/03/12 09:54:17;;;;;;;3.57;1.77;;;12.90;99.90;;;;;;5053213;28;20308;-63
2024/03/12 09:56:44;;;;;;;1.50;1.03;;;12.90;99.90;;;;;;5045196;28;20202;-63
2024/03/12 09:59:11;;;;;;;2.23;1.40;;;12.90;99.90;;;;;;5053098;28;20230;-63
2024/03/12 10:01:39;;;;;;;2.37;1.97;;;12.90;99.90;;;;;;5052878;28;20245;-63
2024/03/12 10:04:06;;;;;;;2.33;1.80;;;12.90;99.90;;;;;;5053003;28;20217;-63
2024/03/12 10:06:33;;;;;;;5.10;1.63;;;12.90;99.90;;;;;;5052883;28;20663;-63
2024/03/12 10:09:01;;;;;;;2.97;2.00;;;12.90;99.90;;;;;;5053162;28;20255;-63
2024/03/12 10:11:28;;;;;;;4.40;2.07;;;12.90;99.90;;;;;;5052827;28;20676;-64
2024/03/12 10:13:56;;;;;;;3.20;2.20;;;12.90;99.90;;;;;;5051640;28;20312;-63
2024/03/12 10:16:25;;;;;;;2.93;2.00;;;12.90;99.90;;;;;;5052954;28;20692;-64
2024/03/12 10:19:09;;;;;;;3.23;2.30;;;12.90;99.90;;;;;;5052834;28;20809;-63
2024/03/12 10:21:36;;;;;;;5.00;2.50;;;12.90;99.90;;;;;;5052565;28;20221;-63
2024/03/12 10:24:14;;;;;;;3.53;2.30;;;13.00;99.90;;;;;;5052481;28;20769;-64
2024/03/12 10:26:41;;;;;;;3.57;2.37;;;13.00;99.90;;;;;;5052954;28;20213;-63
2024/03/12 10:29:10;;;;;;;3.13;1.90;;;13.10;99.90;;;;;;5052789;28;20208;-63
2024/03/12 10:31:39;;;;;;;4.97;2.77;;;13.10;99.90;;;;;;5052298;28;20322;-63
2024/03/12 10:34:10;;;;;;;3.50;2.43;;;13.10;99.90;;;;;;5052596;28;20221;-63
2024/03/12 10:36:42;;;;;;;5.47;2.87;;;13.10;99.90;;;;;;5052438;28;20208;-63
2024/03/12 10:39:12;;;;;;;4.50;2.50;;;13.00;99.90;;;;;;5052371;28;20708;-63
2024/03/12 10:41:39;;;;;;;5.07;2.70;;;12.90;99.90;;;;;;5052260;28;20308;-63
2024/03/12 10:44:10;;;;;;;5.23;3.20;;;12.80;99.90;;;;;;5051876;28;20225;-63
2024/03/12 10:46:38;;;;;;;4.23;3.20;;;12.80;99.90;;;;;;5052313;28;20205;-63
2024/03/12 10:49:10;;;;;;;6.13;3.20;;;12.90;99.90;;;;;;5052471;28;20288;-63
2024/03/12 10:51:40;;;;;;;6.57;3.90;;;13.00;99.90;;;;;;5052169;28;20676;-63
2024/03/12 10:54:12;;;;;;;6.50;4.23;;;13.00;99.90;;;;;;5051704;28;20257;-63
2024/03/12 10:56:39;;;;;;;7.90;2.80;;;13.10;99.90;;;;;;5052537;28;20297;-63
2024/03/12 10:59:07;;;;;;;6.33;3.30;;;13.20;99.90;;;;;;5052088;28;20277;-63
2024/03/12 11:01:36;;;;;;;5.63;3.13;;;13.30;99.90;;;;;;5052195;28;20609;-63
2024/03/12 11:04:05;;;;;;;6.33;3.47;;;13.30;99.90;;;;;;5051886;28;20249;-64
2024/03/12 11:06:35;;;;;;;4.93;3.07;;;13.50;99.90;;;;;;5052057;28;20241;-63
2024/03/12 11:09:02;;;;;;;7.63;3.00;;;13.70;99.90;;;;;;5051698;28;20229;-64
2024/03/12 11:11:31;;;;;;;5.53;3.20;;;13.70;99.90;;;;;;5051634;28;20209;-63
2024/03/12 11:14:01;;;;;;;5.00;2.97;;;13.80;99.90;;;;;;5051602;28;20593;-62
2024/03/12 11:16:31;;;;;;;3.50;2.60;;;13.80;99.90;;;;;;5051702;28;20380;-62
2024/03/12 11:19:00;;;;;;;4.70;2.60;;;13.90;99.90;;;;;;5051584;28;20626;-62
2024/03/12 11:21:32;;;;;;;3.07;2.60;;;14.00;99.90;;;;;;5051258;28;20228;-62
2024/03/12 11:23:59;;;;;;;3.00;2.63;;;14.00;99.90;;;;;;5051198;28;20243;-62
2024/03/12 11:26:29;;;;;;;5.67;3.13;;;14.00;99.90;;;;;;5051566;28;20213;-62
2024/03/12 11:28:57;;;;;;;3.20;2.43;;;13.90;99.90;;;;;;5051691;28;20722;-61
2024/03/12 11:31:25;;;;;;;3.37;2.50;;;13.90;99.90;;;;;;5051874;28;20225;-62
2024/03/12 11:33:52;;;;;;;3.07;2.13;;;13.70;99.90;;;;;;5051524;28;20221;-62
2024/03/12 11:36:28;;;;;;;2.87;2.20;;;13.60;99.90;;;;;;5051766;28;20227;-61
2024/03/12 11:38:58;;;;;;;4.87;2.63;;;13.40;99.90;;;;;;5044755;28;20200;-62
2024/03/12 11:41:45;;;;;;;3.80;2.73;;;13.20;99.90;;;;;;5051577;28;20229;-61
2024/03/12 11:44:43;;;;;;;4.00;2.97;;;13.10;99.90;;;;;;5051511;28;20232;-61
2024/03/12 11:47:10;;;;;;;3.75;2.58;;;13.00;99.90;;;;;;5046755;28;20479;-61
2024/03/12 11:49:38;;;;;;;3.33;2.70;;;13.00;99.90;;;;;;5050411;28;20235;-62
2024/03/12 11:52:06;;;;;;;3.43;2.93;;;13.00;99.90;;;;;;5052029;28;20243;-62
2024/03/12 11:54:43;;;;;;;4.20;3.13;;;13.00;99.90;;;;;;5050965;28;20237;-62
2024/03/12 11:57:19;;;;;;;3.60;3.00;;;12.90;99.90;;;;;;5051500;28;20232;-62
2024/03/12 11:59:48;;;;;;;4.70;3.70;;;12.90;99.90;;;;;;5051718;28;20264;-63
2024/03/12 12:02:20;;;;;;;13.47;9.23;;;12.90;99.90;;;;;;5051308;28;20221;-62
2024/03/12 12:04:51;;;;;;;5.47;3.77;;;12.80;99.90;;;;;;5051047;28;20691;-63
2024/03/12 12:07:18;;;;;;;5.50;3.53;;;12.60;99.90;;;;;;5051137;28;20206;-62
2024/03/12 12:09:45;;;;;;;5.83;4.20;;;12.30;99.90;;;;;;5051116;28;20292;-63
2024/03/12 12:12:14;;;;;;;4.77;3.97;;;12.20;99.90;;;;;;5051399;28;20309;-63
2024/03/12 12:14:42;;;;;;;5.27;3.80;;;12.40;99.90;;;;;;5051177;28;20253;-63
2024/03/12 12:17:11;;;;;;;5.80;3.60;;;12.50;99.90;;;;;;5051804;28;20271;-64
2024/03/12 12:19:39;;;;;;;6.47;4.10;;;12.70;99.90;;;;;;5051245;28;20210;-62
2024/03/12 12:22:07;;;;;;;5.77;3.83;;;12.80;99.90;;;;;;5051195;28;20276;-62
2024/03/12 12:24:37;;;;;;;5.63;3.73;;;13.00;99.90;;;;;;5051463;28;20605;-60
2024/03/12 12:27:04;;;;;;;4.60;3.40;;;13.20;99.90;;;;;;5051271;28;20614;-62
2024/03/12 12:29:33;;;;;;;4.43;3.47;;;13.30;99.90;;;;;;5051503;28;20308;-62
2024/03/12 12:32:01;;;;;;;3.80;2.97;;;13.60;99.90;;;;;;5051520;28;20208;-60
2024/03/12 12:34:29;;;;;;;3.80;2.30;;;13.80;99.90;;;;;;5051582;28;20221;-62
2024/03/12 12:36:56;;;;;;;4.53;2.77;;;13.90;99.90;;;;;;5052999;28;20213;-61
2024/03/12 12:39:23;;;;;;;3.53;3.10;;;14.00;99.90;;;;;;5055211;28;20679;-63
2024/03/12 12:41:50;;;;;;;3.43;2.60;;;13.90;99.90;;;;;;5055165;28;20221;-62
2024/03/12 12:44:20;;;;;;;6.17;4.53;;;13.90;99.90;;;;;;5055286;28;20229;-62
2024/03/12 12:46:49;;;;;;;8.23;5.50;;;13.70;99.90;;;;;;5054919;28;20209;-62
2024/03/12 12:49:16;;;;;;;8.47;6.83;;;13.50;99.90;;;;;;5055131;28;20607;-62
2024/03/12 12:51:45;;;;;;;9.67;6.53;;;13.50;99.90;;;;;;5054952;28;20255;-60
2024/03/12 12:54:14;;;;;;;13.47;9.10;;;13.40;99.90;;;;;;5054190;28;20242;-61
2024/03/12 12:56:42;;;;;;;13.77;10.07;;;13.30;99.90;;;;;;5054872;28;20210;-63
2024/03/12 12:59:08;;;;;;;17.60;12.20;;;13.20;99.90;;;;;;5054608;28;20214;-61
2024/03/12 13:01:37;;;;;;;15.40;12.50;;;13.30;99.90;;;;;;5054584;28;20257;-61